createdAt,value
2018-06-04T00:00:40.774Z,19.10
2018-06-04T00:03:10.594Z,18.99
2018-06-04T00:05:40.260Z,18.37
2018-06-04T00:08:09.934Z,18.78
2018-06-04T00:10:39.652Z,18.92
2018-06-04T00:13:09.431Z,18.81
2018-06-04T00:15:39.202Z,18.35
2018-06-04T00:18:08.992Z,18.74
2018-06-04T00:20:38.768Z,18.80
2018-06-04T00:23:08.541Z,18.85
2018-06-04T00:25:38.364Z,18.77
2018-06-04T00:28:08.087Z,18.71
2018-06-04T00:30:37.743Z,18.70
2018-06-04T00:33:07.475Z,18.79
2018-06-04T00:35:37.306Z,18.94
2018-06-04T00:38:07.085Z,18.97
2018-06-04T00:40:37.091Z,19.01
2018-06-04T00:43:06.907Z,18.90
2018-06-04T00:45:36.651Z,18.50
2018-06-04T00:48:06.364Z,18.68
2018-06-04T00:50:36.034Z,18.80
2018-06-04T00:53:05.921Z,18.80
2018-06-04T00:55:45.461Z,18.51
2018-06-04T00:58:15.195Z,18.52
2018-06-04T01:00:44.935Z,18.58
2018-06-04T01:03:14.579Z,18.40
2018-06-04T01:05:44.437Z,17.73
2018-06-04T01:08:14.153Z,17.59
2018-06-04T01:10:43.878Z,18.02
2018-06-04T01:13:13.605Z,18.30
2018-06-04T01:15:43.234Z,18.54
2018-06-04T01:18:13.032Z,18.23
2018-06-04T01:20:42.763Z,18.39
2018-06-04T01:23:12.549Z,18.00
2018-06-04T01:25:42.280Z,18.22
2018-06-04T01:28:12.173Z,18.03
2018-06-04T01:30:41.958Z,17.92
2018-06-04T01:33:11.784Z,18.16
2018-06-04T01:35:41.573Z,18.35
2018-06-04T01:38:11.416Z,18.22
2018-06-04T01:40:41.677Z,17.74
2018-06-04T01:43:11.462Z,18.09
2018-06-04T01:45:41.126Z,18.28
2018-06-04T01:48:10.855Z,18.34
2018-06-04T01:50:40.590Z,17.78
2018-06-04T01:53:10.262Z,17.95
2018-06-04T01:55:39.985Z,18.07
2018-06-04T01:58:09.834Z,17.98
2018-06-04T02:00:39.480Z,17.53
2018-06-04T02:03:09.201Z,17.11
2018-06-04T02:05:39.055Z,17.59
2018-06-04T02:08:08.781Z,17.46
2018-06-04T02:10:38.524Z,17.71
2018-06-04T02:13:08.236Z,18.09
2018-06-04T02:15:37.925Z,18.22
2018-06-04T02:18:07.617Z,17.88
2018-06-04T02:20:37.444Z,17.80
2018-06-04T02:23:07.262Z,17.38
2018-06-04T02:25:36.952Z,17.47
2018-06-04T02:28:06.598Z,17.54
2018-06-04T02:30:36.383Z,17.91
2018-06-04T02:33:06.247Z,17.68
2018-06-04T02:35:35.985Z,17.65
2018-06-04T02:38:05.797Z,17.82
2018-06-04T02:40:35.542Z,17.92
2018-06-04T02:43:05.751Z,17.92
2018-06-04T02:45:35.522Z,17.76
2018-06-04T02:48:05.655Z,17.39
2018-06-04T02:50:35.459Z,17.39
2018-06-04T02:53:05.143Z,17.59
2018-06-04T02:55:34.875Z,17.34
2018-06-04T02:58:04.592Z,17.01
2018-06-04T03:00:34.302Z,17.10
2018-06-04T03:03:04.024Z,17.21
2018-06-04T03:05:33.853Z,17.23
2018-06-04T03:08:03.575Z,17.15
2018-06-04T03:10:33.382Z,17.06
2018-06-04T03:13:02.982Z,16.75
2018-06-04T03:15:32.695Z,16.83
2018-06-04T03:18:02.338Z,17.21
2018-06-04T03:20:32.060Z,17.04
2018-06-04T03:23:01.825Z,17.13
2018-06-04T03:25:31.395Z,17.10
2018-06-04T03:28:00.915Z,17.16
2018-06-04T03:30:30.638Z,16.94
2018-06-04T03:33:00.435Z,17.27
2018-06-04T03:35:30.222Z,17.54
2018-06-04T03:38:00.022Z,17.80
2018-06-04T03:40:29.746Z,17.53
2018-06-04T03:42:59.435Z,17.72
2018-06-04T03:45:29.537Z,17.49
2018-06-04T03:47:59.353Z,16.98
2018-06-04T03:50:29.286Z,17.10
2018-06-04T03:52:58.993Z,17.08
2018-06-04T03:55:28.790Z,17.13
2018-06-04T03:57:58.532Z,17.19
2018-06-04T04:00:28.130Z,17.19
2018-06-04T04:02:57.814Z,17.23
2018-06-04T04:05:27.433Z,18.04
2018-06-04T04:07:57.315Z,18.50
2018-06-04T04:10:27.004Z,17.78
2018-06-04T04:12:56.851Z,17.41
2018-06-04T04:15:26.514Z,17.09
2018-06-04T04:17:56.203Z,17.11
2018-06-04T04:20:25.994Z,17.83
2018-06-04T04:22:55.748Z,18.34
2018-06-04T04:25:25.544Z,17.72
2018-06-04T04:27:55.280Z,18.16
2018-06-04T04:30:25.079Z,18.15
2018-06-04T04:32:54.959Z,17.61
2018-06-04T04:35:24.811Z,18.33
2018-06-04T04:37:54.538Z,18.42
2018-06-04T04:40:24.335Z,18.79
2018-06-04T04:42:54.074Z,18.97
2018-06-04T04:45:23.851Z,19.08
2018-06-04T04:47:53.961Z,19.26
2018-06-04T04:50:23.779Z,19.43
2018-06-04T04:52:53.582Z,19.66
2018-06-04T04:55:23.408Z,19.98
2018-06-04T04:57:53.210Z,19.46
2018-06-04T05:00:22.997Z,19.28
2018-06-04T05:02:52.779Z,19.83
2018-06-04T05:05:22.667Z,19.00
2018-06-04T05:07:52.503Z,18.53
2018-06-04T05:10:22.385Z,18.68
2018-06-04T05:12:52.235Z,18.44
2018-06-04T05:15:22.050Z,18.50
2018-06-04T05:18:54.704Z,19.03
2018-06-04T05:21:24.455Z,19.18
2018-06-04T05:23:54.274Z,19.23
2018-06-04T05:26:24.510Z,19.09
2018-06-04T05:28:54.383Z,18.75
2018-06-04T05:31:24.218Z,17.97
2018-06-04T05:33:54.052Z,18.17
2018-06-04T05:36:23.984Z,18.15
2018-06-04T05:38:53.881Z,18.34
2018-06-04T05:41:23.764Z,18.21
2018-06-04T05:43:53.564Z,18.93
2018-06-04T05:46:23.416Z,18.18
2018-06-04T05:48:53.313Z,18.43
2018-06-04T05:51:23.125Z,19.33
2018-06-04T05:53:52.805Z,18.80
2018-06-04T05:56:22.659Z,19.19
2018-06-04T05:58:52.356Z,19.54
2018-06-04T06:01:22.284Z,19.36
2018-06-04T06:03:52.094Z,20.16
2018-06-04T06:06:21.899Z,19.32
2018-06-04T06:08:51.795Z,20.09
2018-06-04T06:11:21.586Z,19.70
2018-06-04T06:13:51.812Z,20.15
2018-06-04T06:16:21.526Z,20.07
2018-06-04T06:18:51.325Z,21.35
2018-06-04T06:21:21.050Z,20.98
2018-06-04T06:23:50.940Z,21.55
2018-06-04T06:26:23.703Z,21.72
2018-06-04T06:28:53.498Z,21.65
2018-06-04T06:31:23.242Z,21.93
2018-06-04T06:33:52.934Z,22.57
2018-06-04T06:36:24.062Z,22.82
2018-06-04T06:38:53.855Z,23.21
2018-06-04T06:41:23.714Z,23.56
2018-06-04T06:43:53.561Z,24.16
2018-06-04T06:46:24.063Z,24.40
2018-06-04T06:48:53.782Z,24.31
2018-06-04T06:51:23.717Z,23.63
2018-06-04T06:53:53.787Z,24.03
2018-06-04T06:56:25.054Z,23.80
2018-06-04T06:58:55.587Z,24.25
2018-06-04T07:01:26.210Z,24.72
2018-06-04T07:03:56.913Z,24.36
2018-06-04T07:06:27.997Z,25.03
2018-06-04T07:08:58.422Z,24.71
2018-06-04T07:11:29.004Z,25.59
2018-06-04T07:13:59.477Z,24.94
2018-06-04T07:16:30.424Z,24.59
2018-06-04T07:19:00.614Z,25.70
2018-06-04T07:21:31.046Z,26.05
2018-06-04T07:24:01.573Z,25.15
2018-06-04T07:26:32.320Z,25.99
2018-06-04T07:29:02.941Z,25.68
2018-06-04T07:31:33.067Z,25.28
2018-06-04T07:34:03.323Z,26.39
2018-06-04T07:36:34.735Z,26.35
2018-06-04T07:39:05.087Z,26.84
2018-06-04T07:41:35.688Z,26.17
2018-06-04T07:44:06.080Z,25.79
2018-06-04T07:46:36.934Z,26.85
2018-06-04T07:49:07.534Z,26.63
2018-06-04T07:51:37.930Z,26.84
2018-06-04T07:54:08.467Z,26.98
2018-06-04T07:56:39.793Z,27.16
2018-06-04T07:59:10.381Z,27.36
2018-06-04T08:01:41.103Z,27.27
2018-06-04T08:04:11.827Z,27.03
2018-06-04T08:06:42.562Z,27.41
2018-06-04T08:09:12.861Z,28.31
2018-06-04T08:11:42.837Z,29.06
2018-06-04T08:14:13.168Z,29.21
2018-06-04T08:16:43.749Z,28.71
2018-06-04T08:19:14.307Z,28.43
2018-06-04T08:21:44.549Z,28.28
2018-06-04T08:24:14.957Z,28.85
2018-06-04T08:26:46.672Z,28.26
2018-06-04T08:29:17.090Z,29.28
2018-06-04T08:31:47.584Z,29.08
2018-06-04T08:34:17.881Z,28.44
2018-06-04T08:36:49.050Z,29.27
2018-06-04T08:39:19.674Z,29.31
2018-06-04T08:41:50.171Z,28.81
2018-06-04T08:44:20.900Z,29.64
2018-06-04T08:46:52.029Z,30.45
2018-06-04T08:49:22.205Z,30.05
2018-06-04T08:51:53.154Z,31.05
2018-06-04T08:54:23.502Z,30.86
2018-06-04T08:56:54.404Z,30.34
2018-06-04T08:59:24.789Z,30.64
2018-06-04T09:01:54.902Z,30.32
2018-06-04T09:04:25.525Z,31.05
2018-06-04T09:06:56.053Z,30.51
2018-06-04T09:09:26.544Z,30.89
2018-06-04T09:11:57.437Z,31.34
2018-06-04T09:14:27.996Z,31.65
2018-06-04T09:16:59.323Z,31.71
2018-06-04T09:19:29.721Z,30.73
2018-06-04T09:22:00.118Z,31.33
2018-06-04T09:24:30.533Z,31.94
2018-06-04T09:27:01.212Z,31.56
2018-06-04T09:29:31.436Z,31.58
2018-06-04T09:32:01.998Z,31.85
2018-06-04T09:34:32.443Z,33.00
2018-06-04T09:37:03.408Z,33.20
2018-06-04T09:39:33.847Z,33.93
2018-06-04T09:42:04.299Z,33.63
2018-06-04T09:44:34.903Z,33.86
2018-06-04T09:47:06.300Z,32.70
2018-06-04T09:49:36.823Z,31.20
2018-06-04T09:52:07.648Z,30.55
2018-06-04T09:54:38.348Z,29.83
2018-06-04T09:57:08.886Z,30.40
2018-06-04T09:59:39.415Z,31.27
2018-06-04T10:02:09.932Z,31.16
2018-06-04T10:04:40.340Z,29.91
2018-06-04T10:07:11.461Z,30.77
2018-06-04T10:09:41.771Z,30.99
2018-06-04T10:12:11.837Z,31.06
2018-06-04T10:14:42.520Z,31.04
2018-06-04T10:17:13.678Z,31.87
2018-06-04T10:19:44.040Z,32.90
2018-06-04T10:22:14.351Z,32.95
2018-06-04T10:24:44.879Z,32.85
2018-06-04T10:27:15.831Z,32.77
2018-06-04T10:29:46.342Z,33.28
2018-06-04T10:32:16.490Z,33.31
2018-06-04T10:34:47.255Z,32.62
2018-06-04T10:37:18.509Z,32.56
2018-06-04T10:39:48.902Z,33.44
2018-06-04T10:42:19.258Z,33.20
2018-06-04T10:44:49.669Z,34.10
2018-06-04T10:47:20.668Z,34.01
2018-06-04T10:49:51.031Z,34.13
2018-06-04T10:52:21.686Z,32.61
2018-06-04T10:54:52.123Z,31.35
2018-06-04T10:57:22.759Z,31.13
2018-06-04T10:59:53.169Z,31.89
2018-06-04T11:02:23.549Z,31.75
2018-06-04T11:04:53.956Z,32.52
2018-06-04T11:07:24.959Z,33.09
2018-06-04T11:09:55.264Z,31.18
2018-06-04T11:12:25.790Z,31.62
2018-06-04T11:14:56.293Z,31.51
2018-06-04T11:17:27.101Z,32.63
2018-06-04T11:19:57.545Z,31.82
2018-06-04T11:22:27.919Z,31.50
2018-06-04T11:24:58.398Z,32.81
2018-06-04T11:27:29.422Z,32.24
2018-06-04T11:29:59.866Z,32.81
2018-06-04T11:32:30.289Z,33.34
2018-06-04T11:35:00.919Z,33.20
2018-06-04T11:37:31.081Z,33.23
2018-06-04T11:40:01.491Z,33.81
2018-06-04T11:42:32.038Z,34.23
2018-06-04T11:45:02.562Z,34.15
2018-06-04T11:47:33.864Z,34.28
2018-06-04T11:50:04.414Z,33.37
2018-06-04T11:52:35.391Z,34.80
2018-06-04T11:55:05.910Z,34.67
2018-06-04T11:57:37.354Z,34.59
2018-06-04T12:00:08.447Z,34.88
2018-06-04T12:02:38.907Z,34.39
2018-06-04T12:05:09.653Z,32.89
2018-06-04T12:07:40.694Z,32.54
2018-06-04T12:10:11.182Z,32.80
2018-06-04T12:12:41.945Z,31.37
2018-06-04T12:15:12.409Z,31.21
2018-06-04T12:17:43.988Z,31.34
2018-06-04T12:20:14.318Z,30.27
2018-06-04T12:22:44.526Z,29.70
2018-06-04T12:25:15.078Z,29.60
2018-06-04T12:27:46.389Z,29.60
2018-06-04T12:30:16.870Z,29.49
2018-06-04T12:32:47.261Z,29.46
2018-06-04T12:35:17.529Z,28.89
2018-06-04T12:37:48.058Z,28.80
2018-06-04T12:40:18.649Z,28.83
2018-06-04T12:42:49.203Z,29.27
2018-06-04T12:45:19.725Z,28.80
2018-06-04T12:47:50.853Z,28.16
2018-06-04T12:50:21.210Z,28.19
2018-06-04T12:52:52.043Z,28.18
2018-06-04T12:55:22.371Z,27.73
2018-06-04T12:57:53.043Z,28.08
2018-06-04T13:00:23.709Z,27.85
2018-06-04T13:02:53.745Z,27.98
2018-06-04T13:05:23.897Z,28.08
2018-06-04T13:07:54.582Z,29.44
2018-06-04T13:10:25.040Z,29.10
2018-06-04T13:12:55.278Z,29.26
2018-06-04T13:15:26.005Z,28.93
2018-06-04T13:17:56.757Z,28.11
2018-06-04T13:20:27.308Z,28.12
2018-06-04T13:22:57.634Z,27.99
2018-06-04T13:25:27.971Z,27.59
2018-06-04T13:27:58.638Z,27.52
2018-06-04T13:30:29.132Z,27.75
2018-06-04T13:32:59.628Z,27.18
2018-06-04T13:35:30.008Z,27.30
2018-06-04T13:38:00.634Z,27.46
2018-06-04T13:40:30.974Z,27.50
2018-06-04T13:43:01.384Z,27.89
2018-06-04T13:45:31.706Z,28.44
2018-06-04T13:48:02.944Z,28.48
2018-06-04T13:50:33.447Z,28.94
2018-06-04T13:53:04.142Z,29.44
2018-06-04T13:55:34.644Z,29.09
2018-06-04T13:58:05.770Z,28.29
2018-06-04T14:00:36.383Z,28.36
2018-06-04T14:03:06.817Z,27.99
2018-06-04T14:05:37.398Z,27.90
2018-06-04T14:08:07.898Z,28.11
2018-06-04T14:10:38.131Z,27.85
2018-06-04T14:13:08.820Z,27.76
2018-06-04T14:15:39.385Z,27.71
2018-06-04T14:18:10.360Z,27.29
2018-06-04T14:20:40.942Z,27.45
2018-06-04T14:23:11.026Z,27.42
2018-06-04T14:25:41.680Z,27.51
2018-06-04T14:28:12.289Z,27.98
2018-06-04T14:30:42.872Z,27.93
2018-06-04T14:33:13.712Z,28.16
2018-06-04T14:35:44.339Z,28.08
2018-06-04T14:38:15.767Z,27.67
2018-06-04T14:40:46.310Z,27.77
2018-06-04T14:43:16.446Z,27.84
2018-06-04T14:45:46.837Z,28.08
2018-06-04T14:48:17.960Z,28.03
2018-06-04T14:50:48.676Z,27.86
2018-06-04T14:53:19.670Z,28.57
2018-06-04T14:55:50.275Z,28.25
2018-06-04T14:58:21.971Z,28.16
2018-06-04T15:00:52.117Z,28.25
2018-06-04T15:03:22.683Z,28.23
2018-06-04T15:05:53.489Z,28.54
2018-06-04T15:08:24.590Z,28.72
2018-06-04T15:10:54.972Z,28.43
2018-06-04T15:13:25.432Z,28.11
2018-06-04T15:15:56.359Z,27.52
2018-06-04T15:18:28.125Z,27.56
2018-06-04T15:20:58.542Z,26.75
2018-06-04T15:23:28.949Z,26.16
2018-06-04T15:25:59.318Z,25.88
2018-06-04T15:28:30.408Z,25.81
2018-06-04T15:31:00.908Z,25.77
2018-06-04T15:33:31.476Z,25.83
2018-06-04T15:36:02.400Z,25.93
2018-06-04T15:38:33.135Z,25.45
2018-06-04T15:41:03.764Z,25.12
2018-06-04T15:43:34.264Z,25.16
2018-06-04T15:46:04.701Z,24.98
2018-06-04T15:48:35.231Z,24.97
2018-06-04T15:51:05.808Z,24.98
2018-06-04T15:53:36.428Z,25.19
2018-06-04T15:56:07.189Z,25.05
2018-06-04T15:58:38.530Z,24.84
2018-06-04T16:01:09.138Z,24.49
2018-06-04T16:03:39.737Z,24.31
2018-06-04T16:06:10.297Z,24.19
2018-06-04T16:08:41.348Z,24.35
2018-06-04T16:11:11.838Z,24.69
2018-06-04T16:13:42.396Z,24.87
2018-06-04T16:16:13.209Z,24.54
2018-06-04T16:18:44.220Z,24.40
2018-06-04T16:21:14.679Z,24.53
2018-06-04T16:23:45.258Z,24.27
2018-06-04T16:26:16.059Z,24.29
2018-06-04T16:28:47.582Z,24.11
2018-06-04T16:31:18.303Z,24.33
2018-06-04T16:33:48.973Z,24.25
2018-06-04T16:36:19.416Z,24.26
2018-06-04T16:38:50.618Z,24.36
2018-06-04T16:41:21.075Z,24.76
2018-06-04T16:43:51.244Z,24.77
2018-06-04T16:46:22.090Z,24.71
2018-06-04T16:48:52.816Z,24.19
2018-06-04T16:51:23.346Z,24.00
2018-06-04T16:53:53.894Z,23.68
2018-06-04T16:56:24.357Z,23.51
2018-06-04T16:58:55.140Z,23.75
2018-06-04T17:01:25.699Z,23.67
2018-06-04T17:03:56.118Z,23.63
2018-06-04T17:06:26.494Z,24.25
2018-06-04T17:08:56.804Z,24.36
2018-06-04T17:11:27.484Z,24.48
2018-06-04T17:13:57.912Z,24.21
2018-06-04T17:16:28.601Z,24.11
2018-06-04T17:18:59.646Z,24.05
2018-06-04T17:21:29.492Z,23.70
2018-06-04T17:23:59.211Z,23.84
2018-06-04T17:26:28.963Z,23.58
2018-06-04T17:28:58.781Z,23.76
2018-06-04T17:31:28.570Z,23.23
2018-06-04T17:33:58.274Z,23.12
2018-06-04T17:36:28.039Z,23.66
2018-06-04T17:38:57.797Z,23.51
2018-06-04T17:41:27.534Z,23.54
2018-06-04T17:43:57.345Z,23.77
2018-06-04T17:46:27.182Z,23.24
2018-06-04T17:48:56.884Z,23.35
2018-06-04T17:51:26.593Z,22.78
2018-06-04T17:53:56.581Z,23.15
2018-06-04T17:56:26.270Z,23.51
2018-06-04T17:58:55.973Z,23.03
2018-06-04T18:01:25.700Z,22.66
2018-06-04T18:03:55.550Z,22.15
2018-06-04T18:06:25.338Z,22.32
2018-06-04T18:08:55.054Z,22.37
2018-06-04T18:11:24.796Z,22.38
2018-06-04T18:13:54.540Z,22.91
2018-06-04T18:16:24.313Z,23.17
2018-06-04T18:18:54.022Z,23.25
2018-06-04T18:21:23.783Z,23.15
2018-06-04T18:23:53.431Z,23.29
2018-06-04T18:26:23.568Z,23.29
2018-06-04T18:28:54.365Z,23.28
2018-06-04T18:31:23.990Z,22.70
2018-06-04T18:33:53.625Z,22.84
2018-06-04T18:36:23.206Z,22.90
2018-06-04T18:38:53.045Z,22.98
2018-06-04T18:41:22.808Z,23.10
2018-06-04T18:43:52.596Z,23.01
2018-06-04T18:46:22.180Z,22.77
2018-06-04T18:48:51.907Z,22.29
2018-06-04T18:51:21.641Z,21.58
2018-06-04T18:53:51.368Z,21.71
2018-06-04T18:56:21.685Z,21.35
2018-06-04T18:58:51.510Z,21.74
2018-06-04T19:01:21.252Z,22.04
2018-06-04T19:03:50.991Z,22.34
2018-06-04T19:06:20.757Z,22.44
2018-06-04T19:08:50.432Z,21.97
2018-06-04T19:11:20.218Z,21.54
2018-06-04T19:13:50.018Z,21.50
2018-06-04T19:16:19.763Z,21.11
2018-06-04T19:18:49.579Z,19.49
2018-06-04T19:21:19.263Z,21.44
2018-06-04T19:23:49.010Z,21.91
2018-06-04T19:26:18.831Z,22.17
2018-06-04T19:28:48.716Z,22.16
2018-06-04T19:31:18.386Z,22.48
2018-06-04T19:33:48.231Z,22.65
2018-06-04T19:36:17.920Z,22.77
2018-06-04T19:38:47.767Z,22.86
2018-06-04T19:41:17.591Z,22.80
2018-06-04T19:43:47.648Z,22.81
2018-06-04T19:46:17.411Z,22.84
2018-06-04T19:48:47.319Z,22.89
2018-06-04T19:51:16.913Z,22.67
2018-06-04T19:53:46.640Z,22.51
2018-06-04T19:56:16.490Z,22.50
2018-06-04T19:58:46.472Z,22.52
2018-06-04T20:01:17.540Z,21.72
2018-06-04T20:03:47.292Z,21.51
2018-06-04T20:06:17.034Z,21.78
2018-06-04T20:09:50.291Z,22.09
2018-06-04T20:12:20.105Z,21.95
2018-06-04T20:14:49.856Z,21.86
2018-06-04T20:17:19.589Z,21.88
2018-06-04T20:19:49.419Z,21.76
2018-06-04T20:22:19.111Z,21.94
2018-06-04T20:24:48.850Z,21.75
2018-06-04T20:27:18.590Z,21.72
2018-06-04T20:29:48.388Z,21.79
2018-06-04T20:32:18.173Z,21.72
2018-06-04T20:34:47.949Z,22.00
2018-06-04T20:37:17.693Z,21.98
2018-06-04T20:39:47.440Z,21.85
2018-06-04T20:42:17.193Z,21.76
2018-06-04T20:44:47.025Z,21.46
2018-06-04T20:47:16.977Z,21.60
2018-06-04T20:49:46.750Z,21.64
2018-06-04T20:52:16.541Z,20.87
2018-06-04T20:54:46.233Z,21.00
2018-06-04T20:57:15.882Z,21.07
2018-06-04T20:59:45.809Z,21.28
2018-06-04T21:02:15.526Z,21.35
2018-06-04T21:04:45.254Z,21.45
2018-06-04T21:07:15.007Z,20.77
2018-06-04T21:09:44.660Z,21.01
2018-06-04T21:12:15.369Z,21.03
2018-06-04T21:14:46.604Z,20.94
2018-06-04T21:17:16.755Z,20.81
2018-06-04T21:19:46.477Z,20.59
2018-06-04T21:22:16.218Z,20.77
2018-06-04T21:24:45.945Z,20.95
2018-06-04T21:27:15.798Z,20.93
2018-06-04T21:29:45.569Z,21.13
2018-06-04T21:32:15.358Z,20.73
2018-06-04T21:34:45.212Z,21.11
2018-06-04T21:37:15.007Z,20.87
2018-06-04T21:39:44.667Z,20.73
2018-06-04T21:42:14.270Z,20.74
2018-06-04T21:44:43.886Z,20.89
2018-06-04T21:47:13.648Z,20.99
2018-06-04T21:49:43.315Z,21.08
2018-06-04T21:52:12.966Z,20.93
2018-06-04T21:54:42.613Z,20.72
2018-06-04T21:57:12.399Z,20.34
2018-06-04T21:59:42.131Z,20.49
2018-06-04T22:02:12.209Z,19.70
2018-06-04T22:04:42.133Z,20.13
2018-06-04T22:07:11.698Z,20.32
2018-06-04T22:09:41.534Z,20.57
2018-06-04T22:12:11.895Z,20.62
2018-06-04T22:14:41.680Z,20.40
2018-06-04T22:17:11.586Z,20.61
2018-06-04T22:19:41.383Z,20.53
2018-06-04T22:22:11.191Z,20.27
2018-06-04T22:24:41.045Z,19.43
2018-06-04T22:27:10.808Z,19.66
2018-06-04T22:29:40.722Z,19.75
2018-06-04T22:32:10.566Z,19.70
2018-06-04T22:34:40.140Z,19.79
2018-06-04T22:37:09.969Z,19.91
2018-06-04T22:39:39.735Z,19.73
2018-06-04T22:42:09.549Z,19.42
2018-06-04T22:44:39.321Z,19.67
2018-06-04T22:47:09.024Z,19.45
2018-06-04T22:49:38.700Z,19.74
2018-06-04T22:52:08.373Z,19.94
2018-06-04T22:54:38.246Z,19.91
2018-06-04T22:57:08.637Z,19.90
2018-06-04T22:59:39.071Z,20.08
2018-06-04T23:02:09.503Z,20.08
2018-06-04T23:04:40.173Z,20.23
2018-06-04T23:07:10.882Z,19.52
2018-06-04T23:09:41.479Z,19.52
2018-06-04T23:12:12.036Z,18.72
2018-06-04T23:14:42.558Z,19.59
2018-06-04T23:17:14.131Z,19.78
2018-06-04T23:19:44.325Z,19.49
2018-06-04T23:22:14.956Z,19.69
2018-06-04T23:24:45.326Z,19.87
2018-06-04T23:27:15.842Z,18.56
2018-06-04T23:29:45.522Z,18.53
2018-06-04T23:32:15.242Z,18.69
2018-06-04T23:34:45.080Z,19.33
2018-06-04T23:37:14.839Z,19.56
2018-06-04T23:39:44.557Z,19.31
2018-06-04T23:42:14.836Z,18.98
2018-06-04T23:44:45.183Z,19.22
2018-06-04T23:47:15.592Z,19.54
2018-06-04T23:49:45.849Z,19.52
2018-06-04T23:52:16.271Z,19.74
2018-06-04T23:54:46.830Z,19.60
2018-06-04T23:57:17.508Z,19.10
2018-06-04T23:59:47.998Z,18.70
